Harlem, Montana
Current Conditions -  °F | °C
As of 6:53 PM on Sunday 21 Dec 2014 (Local Time) from KHVR Reporting Station
Overcast Overcast  
Wind Chill: 29°   Ceiling: 7500
Heat Index: 37°   Visibility: 10mi
Dew Point: 29°   Wind: 13mph
Humidity: 73%   Direction: 300°WNW
Pressure: 29.55"   Gusts: NA
Location:  48.53°N, 108.78°W
Report Text: KHVR 220153Z AUTO 30011KT 10SM FEW060 OVC075 03/M02 A2955 RMK AO2 SLP023 T00281017 $
Loading
Personal Weather Stations






























Interactive Weather Map New forecast layout! Learn more

10-Day Weather Forecast

Advertisements
Track Severe Weather on mobile